createdAt,value
2022-08-19T00:01:53.396Z,16.34
2022-08-19T00:04:22.823Z,16.36
2022-08-19T00:06:49.424Z,16.36
2022-08-19T00:09:18.314Z,16.40
2022-08-19T00:11:45.825Z,16.43
2022-08-19T00:14:14.500Z,16.44
2022-08-19T00:16:42.327Z,16.42
2022-08-19T00:19:10.631Z,16.39
2022-08-19T00:21:37.457Z,16.37
2022-08-19T00:24:04.294Z,16.46
2022-08-19T00:26:30.923Z,16.51
2022-08-19T00:28:57.475Z,16.52
2022-08-19T00:31:24.160Z,16.50
2022-08-19T00:33:50.688Z,16.46
2022-08-19T00:36:18.879Z,16.45
2022-08-19T00:38:45.764Z,16.47
2022-08-19T00:41:14.502Z,16.49
2022-08-19T00:43:41.179Z,16.51
2022-08-19T00:46:08.355Z,16.50
2022-08-19T00:48:35.958Z,16.51
2022-08-19T00:51:04.237Z,16.52
2022-08-19T00:53:33.451Z,16.72
2022-08-19T00:56:01.836Z,16.91
2022-08-19T00:58:31.750Z,16.93
2022-08-19T01:00:58.339Z,16.97
2022-08-19T01:03:24.930Z,16.98
2022-08-19T01:05:54.595Z,16.96
2022-08-19T01:08:21.779Z,16.94
2022-08-19T01:10:51.930Z,16.91
2022-08-19T01:13:23.256Z,16.87
2022-08-19T01:15:54.511Z,16.84
2022-08-19T01:18:21.683Z,16.84
2022-08-19T01:20:49.054Z,16.80
2022-08-19T01:23:17.530Z,16.78
2022-08-19T01:25:47.927Z,16.78
2022-08-19T01:28:33.618Z,16.76
2022-08-19T01:31:08.237Z,16.77
2022-08-19T01:33:35.265Z,16.77
2022-08-19T01:36:07.883Z,16.77
2022-08-19T01:38:44.491Z,16.82
2022-08-19T01:41:11.933Z,16.90
2022-08-19T01:43:39.231Z,16.94
2022-08-19T01:46:25.830Z,16.96
2022-08-19T01:48:52.369Z,17.05
2022-08-19T01:51:18.989Z,17.08
2022-08-19T01:53:50.160Z,17.07
2022-08-19T01:56:16.913Z,17.07
2022-08-19T01:58:47.901Z,17.09
2022-08-19T02:01:14.572Z,17.09
2022-08-19T02:03:41.236Z,17.07
2022-08-19T02:06:07.977Z,17.05
2022-08-19T02:08:38.027Z,17.05
2022-08-19T02:11:06.425Z,17.03
2022-08-19T02:13:33.644Z,17.01
2022-08-19T02:16:00.212Z,17.02
2022-08-19T02:18:30.976Z,17.01
2022-08-19T02:20:57.545Z,17.01
2022-08-19T02:23:24.171Z,17.00
2022-08-19T02:25:52.409Z,17.00
2022-08-19T02:28:20.428Z,16.97
2022-08-19T02:30:48.754Z,16.98
2022-08-19T02:33:15.883Z,16.97
2022-08-19T02:35:43.161Z,16.99
2022-08-19T02:38:09.850Z,16.98
2022-08-19T02:40:36.606Z,17.01
2022-08-19T02:43:04.039Z,17.00
2022-08-19T02:45:34.756Z,17.05
2022-08-19T02:48:01.449Z,17.09
2022-08-19T02:50:29.957Z,17.14
2022-08-19T02:52:56.517Z,17.18
2022-08-19T02:55:23.173Z,17.23
2022-08-19T02:57:49.899Z,17.24
2022-08-19T03:00:17.382Z,17.25
2022-08-19T03:02:45.286Z,17.25
2022-08-19T03:05:11.832Z,17.25
2022-08-19T03:07:38.546Z,17.24
2022-08-19T03:10:06.192Z,17.24
2022-08-19T03:12:36.808Z,17.24
2022-08-19T03:15:04.360Z,17.23
2022-08-19T03:17:30.893Z,17.22
2022-08-19T03:19:58.811Z,17.20
2022-08-19T03:22:25.346Z,17.19
2022-08-19T03:24:51.977Z,17.20
2022-08-19T03:27:18.557Z,17.18
2022-08-19T03:29:45.123Z,17.17
2022-08-19T03:32:31.720Z,17.18
2022-08-19T03:35:00.353Z,17.15
2022-08-19T03:37:26.897Z,17.14
2022-08-19T03:39:53.470Z,17.12
2022-08-19T03:42:38.481Z,17.11
2022-08-19T03:45:07.872Z,17.13
2022-08-19T03:47:34.506Z,17.11
2022-08-19T03:50:02.717Z,17.09
2022-08-19T03:52:29.336Z,17.09
2022-08-19T03:54:55.910Z,17.09
2022-08-19T03:57:31.744Z,17.07
2022-08-19T04:00:12.686Z,17.06
2022-08-19T04:02:39.933Z,17.07
2022-08-19T04:05:08.458Z,17.06
2022-08-19T04:07:35.111Z,17.05
2022-08-19T04:10:01.685Z,17.04
2022-08-19T04:12:29.046Z,17.05
2022-08-19T04:14:55.574Z,17.04
2022-08-19T04:17:22.135Z,17.04
2022-08-19T04:19:48.698Z,17.08
2022-08-19T04:22:16.590Z,17.07
2022-08-19T04:24:43.152Z,17.09
2022-08-19T04:27:09.703Z,17.11
2022-08-19T04:29:36.306Z,17.10
2022-08-19T04:32:09.008Z,17.12
2022-08-19T04:34:36.938Z,17.13
2022-08-19T04:37:24.915Z,17.13
2022-08-19T04:39:51.489Z,17.12
2022-08-19T04:42:30.624Z,17.12
2022-08-19T04:44:57.907Z,17.17
2022-08-19T04:47:47.908Z,17.17
2022-08-19T04:50:12.461Z,17.21
2022-08-19T04:52:40.730Z,17.23
2022-08-19T04:55:07.899Z,17.21
2022-08-19T04:57:34.480Z,17.18
2022-08-19T05:00:01.022Z,17.18
2022-08-19T05:02:27.651Z,17.22
2022-08-19T05:04:58.318Z,17.25
2022-08-19T05:07:24.862Z,17.27
2022-08-19T05:09:58.051Z,17.33
2022-08-19T05:12:29.115Z,17.37
2022-08-19T05:14:56.576Z,17.37
2022-08-19T05:17:27.639Z,17.41
2022-08-19T05:19:55.231Z,17.45
2022-08-19T05:22:21.808Z,17.47
2022-08-19T05:25:11.209Z,17.55
2022-08-19T05:27:36.378Z,17.59
2022-08-19T05:30:04.440Z,17.62
2022-08-19T05:32:31.023Z,17.61
2022-08-19T05:34:57.762Z,17.63
2022-08-19T05:37:24.338Z,17.65
2022-08-19T05:39:51.734Z,17.68
2022-08-19T05:42:18.361Z,17.66
2022-08-19T05:44:46.322Z,17.71
2022-08-19T05:47:14.502Z,17.79
2022-08-19T05:49:41.227Z,17.84
2022-08-19T05:52:10.555Z,17.92
2022-08-19T05:54:39.129Z,17.93
2022-08-19T05:57:05.670Z,17.97
2022-08-19T05:59:32.273Z,17.92
2022-08-19T06:02:00.190Z,17.93
2022-08-19T06:04:26.771Z,17.96
2022-08-19T06:06:54.359Z,17.97
2022-08-19T06:09:21.996Z,18.04
2022-08-19T06:11:54.115Z,18.11
2022-08-19T06:14:27.816Z,18.17
2022-08-19T06:16:55.131Z,18.19
2022-08-19T06:19:23.856Z,18.22
2022-08-19T06:21:51.606Z,18.28
2022-08-19T06:24:21.035Z,18.33
2022-08-19T06:29:23.532Z,18.35
2022-08-19T06:31:52.574Z,18.39
2022-08-19T06:34:20.144Z,18.38
2022-08-19T06:36:50.768Z,18.39
2022-08-19T06:39:19.598Z,18.34
2022-08-19T06:41:52.472Z,18.39
2022-08-19T06:44:22.410Z,18.41
2022-08-19T06:46:54.841Z,18.32
2022-08-19T06:49:21.970Z,18.35
2022-08-19T06:51:51.768Z,18.46
2022-08-19T06:54:20.164Z,18.60
2022-08-19T06:56:48.030Z,18.65
2022-08-19T06:59:18.259Z,18.63
2022-08-19T07:01:47.391Z,18.74
2022-08-19T07:04:15.019Z,18.78
2022-08-19T07:06:44.321Z,18.88
2022-08-19T07:09:18.376Z,19.05
2022-08-19T07:11:46.849Z,19.12
2022-08-19T07:14:19.031Z,19.15
2022-08-19T07:16:49.178Z,19.45
2022-08-19T07:19:18.844Z,19.60
2022-08-19T07:21:46.528Z,19.83
2022-08-19T07:24:14.412Z,19.91
2022-08-19T07:26:43.398Z,20.13
2022-08-19T07:29:11.439Z,20.23
2022-08-19T07:31:38.713Z,20.37
2022-08-19T07:34:07.378Z,20.15
2022-08-19T07:36:35.910Z,20.24
2022-08-19T07:39:06.922Z,20.38
2022-08-19T07:41:36.220Z,20.36
2022-08-19T07:44:04.158Z,20.26
2022-08-19T07:46:31.087Z,20.20
2022-08-19T07:48:58.202Z,20.27
2022-08-19T07:51:36.713Z,20.37
2022-08-19T07:54:04.475Z,20.32
2022-08-19T07:56:31.322Z,20.36
2022-08-19T07:58:59.236Z,20.17
2022-08-19T08:01:28.190Z,20.31
2022-08-19T08:03:56.805Z,20.35
2022-08-19T08:06:24.072Z,20.42
2022-08-19T08:08:50.660Z,20.65
2022-08-19T08:11:21.066Z,20.99
2022-08-19T08:13:48.648Z,20.98
2022-08-19T08:16:29.626Z,20.88
2022-08-19T08:18:56.741Z,20.86
2022-08-19T08:21:24.239Z,21.34
2022-08-19T08:23:53.197Z,21.67
2022-08-19T08:26:21.019Z,22.01
2022-08-19T08:28:48.062Z,22.25
2022-08-19T08:31:16.203Z,22.42
2022-08-19T08:33:44.232Z,22.90
2022-08-19T08:36:12.005Z,22.95
2022-08-19T08:38:40.312Z,22.84
2022-08-19T08:41:14.283Z,22.55
2022-08-19T08:43:41.890Z,22.68
2022-08-19T08:46:13.778Z,23.22
2022-08-19T08:48:53.598Z,23.30
2022-08-19T08:51:24.809Z,23.72
2022-08-19T08:53:57.749Z,23.45
2022-08-19T08:56:24.366Z,23.91
2022-08-19T08:58:57.942Z,24.08
2022-08-19T09:01:25.085Z,24.19
2022-08-19T09:04:02.825Z,24.53
2022-08-19T09:06:37.987Z,24.20
2022-08-19T09:09:15.313Z,24.18
2022-08-19T09:11:57.431Z,24.75
2022-08-19T09:14:52.651Z,25.53
2022-08-19T09:17:21.776Z,24.92
2022-08-19T09:19:54.661Z,24.43
2022-08-19T09:22:25.385Z,24.66
2022-08-19T09:24:53.262Z,25.15
2022-08-19T09:27:20.159Z,25.46
2022-08-19T09:29:46.727Z,25.81
2022-08-19T09:32:26.721Z,26.17
2022-08-19T09:34:55.122Z,26.46
2022-08-19T09:37:22.063Z,26.75
2022-08-19T09:39:51.975Z,26.52
2022-08-19T09:42:29.765Z,26.12
2022-08-19T09:44:57.157Z,26.63
2022-08-19T09:47:26.638Z,26.61
2022-08-19T09:49:53.227Z,26.72
2022-08-19T09:52:22.254Z,26.72
2022-08-19T09:54:52.327Z,26.68
2022-08-19T09:57:18.934Z,27.16
2022-08-19T09:59:45.543Z,27.11
2022-08-19T10:02:12.123Z,26.69
2022-08-19T10:04:39.305Z,27.16
2022-08-19T10:07:06.925Z,26.73
2022-08-19T10:09:35.099Z,26.54
2022-08-19T10:12:03.056Z,26.67
2022-08-19T10:14:30.053Z,27.17
2022-08-19T10:16:56.626Z,26.95
2022-08-19T10:19:25.755Z,27.12
2022-08-19T10:21:53.932Z,27.06
2022-08-19T10:24:20.530Z,26.77
2022-08-19T10:26:48.426Z,27.42
2022-08-19T10:29:32.049Z,27.22
2022-08-19T10:32:02.289Z,27.02
2022-08-19T10:34:31.567Z,27.04
2022-08-19T10:37:00.756Z,27.37
2022-08-19T10:39:29.036Z,27.43
2022-08-19T10:41:59.026Z,27.49
2022-08-19T10:44:26.447Z,28.17
2022-08-19T10:47:00.083Z,27.70
2022-08-19T10:49:26.719Z,27.04
2022-08-19T10:51:54.791Z,27.41
2022-08-19T10:54:32.130Z,27.56
2022-08-19T10:57:01.368Z,28.36
2022-08-19T10:59:35.268Z,28.83
2022-08-19T11:02:04.240Z,29.33
2022-08-19T11:04:30.877Z,29.63
2022-08-19T11:06:57.456Z,28.60
2022-08-19T11:09:33.345Z,28.69
2022-08-19T11:12:02.824Z,28.72
2022-08-19T11:14:34.232Z,28.43
2022-08-19T11:17:01.658Z,28.51
2022-08-19T11:19:28.227Z,28.45
2022-08-19T11:21:54.797Z,29.30
2022-08-19T11:24:26.552Z,29.68
2022-08-19T11:26:55.347Z,29.84
2022-08-19T11:29:23.363Z,30.08
2022-08-19T11:31:50.811Z,30.31
2022-08-19T11:34:21.357Z,30.85
2022-08-19T11:36:49.716Z,30.43
2022-08-19T11:39:17.981Z,30.60
2022-08-19T11:41:44.820Z,30.87
2022-08-19T11:44:11.716Z,31.46
2022-08-19T11:46:39.668Z,30.58
2022-08-19T11:49:13.249Z,31.02
2022-08-19T11:51:40.941Z,31.52
2022-08-19T11:54:07.479Z,31.42
2022-08-19T11:56:34.043Z,31.20
2022-08-19T11:59:01.882Z,31.25
2022-08-19T12:01:28.659Z,30.69
2022-08-19T12:03:57.749Z,29.87
2022-08-19T12:06:32.099Z,29.96
2022-08-19T12:09:00.122Z,30.64
2022-08-19T12:11:27.943Z,30.68
2022-08-19T12:13:55.742Z,30.87
2022-08-19T12:16:24.165Z,31.64
2022-08-19T12:18:51.178Z,31.77
2022-08-19T12:21:22.156Z,31.62
2022-08-19T12:23:53.894Z,31.87
2022-08-19T12:26:22.824Z,32.13
2022-08-19T12:28:49.889Z,30.88
2022-08-19T12:31:16.447Z,29.73
2022-08-19T12:33:43.271Z,29.96
2022-08-19T12:36:12.080Z,29.83
2022-08-19T12:38:40.303Z,29.29
2022-08-19T12:41:09.883Z,29.00
2022-08-19T12:43:37.707Z,28.98
2022-08-19T12:46:05.578Z,28.09
2022-08-19T12:48:34.445Z,28.39
2022-08-19T12:51:06.742Z,28.73
2022-08-19T12:53:33.357Z,28.25
2022-08-19T12:56:03.232Z,28.32
2022-08-19T12:58:33.987Z,28.46
2022-08-19T13:01:00.622Z,28.47
2022-08-19T13:03:27.181Z,29.06
2022-08-19T13:05:53.801Z,29.26
2022-08-19T13:08:20.343Z,30.07
2022-08-19T13:10:46.936Z,29.57
2022-08-19T13:13:14.980Z,29.30
2022-08-19T13:15:43.039Z,29.18
2022-08-19T13:18:10.938Z,29.34
2022-08-19T13:20:39.545Z,28.85
2022-08-19T13:23:06.090Z,28.37
2022-08-19T13:25:32.799Z,28.23
2022-08-19T13:28:00.849Z,27.61
2022-08-19T13:30:28.755Z,27.61
2022-08-19T13:32:55.354Z,27.90
2022-08-19T13:35:21.907Z,27.95
2022-08-19T13:37:48.550Z,28.19
2022-08-19T13:40:17.391Z,28.39
2022-08-19T13:42:45.456Z,28.64
2022-08-19T13:45:11.998Z,27.93
2022-08-19T13:47:39.994Z,27.98
2022-08-19T13:50:07.468Z,28.94
2022-08-19T13:52:34.024Z,28.63
2022-08-19T13:55:00.574Z,28.33
2022-08-19T13:57:27.632Z,28.53
2022-08-19T13:59:54.207Z,29.83
2022-08-19T14:02:20.748Z,30.30
2022-08-19T14:04:48.647Z,31.11
2022-08-19T14:07:15.174Z,31.26
2022-08-19T14:09:42.560Z,31.06
2022-08-19T14:12:09.925Z,30.78
2022-08-19T14:14:37.488Z,30.54
2022-08-19T14:17:07.247Z,30.91
2022-08-19T14:19:34.134Z,30.45
2022-08-19T14:22:02.014Z,30.05
2022-08-19T14:24:28.572Z,29.97
2022-08-19T14:26:55.142Z,29.42
2022-08-19T14:29:21.847Z,29.62
2022-08-19T14:31:48.399Z,29.72
2022-08-19T14:34:15.100Z,29.78
2022-08-19T14:36:41.787Z,29.61
2022-08-19T14:39:09.915Z,29.64
2022-08-19T14:41:36.997Z,30.26
2022-08-19T14:44:03.915Z,30.44
2022-08-19T14:46:30.439Z,30.64
2022-08-19T14:48:57.166Z,30.41
2022-08-19T14:51:26.744Z,29.68
2022-08-19T14:53:54.680Z,29.24
2022-08-19T14:56:25.192Z,28.83
2022-08-19T14:58:51.905Z,28.47
2022-08-19T15:01:19.547Z,28.96
2022-08-19T15:03:47.005Z,29.22
2022-08-19T15:06:13.777Z,29.52
2022-08-19T15:08:42.356Z,29.55
2022-08-19T15:11:10.704Z,29.90
2022-08-19T15:13:39.242Z,30.35
2022-08-19T15:16:06.430Z,30.63
2022-08-19T15:18:45.039Z,30.90
2022-08-19T15:21:11.915Z,31.06
2022-08-19T15:23:39.068Z,30.14
2022-08-19T15:26:05.785Z,29.58
2022-08-19T15:28:32.439Z,29.90
2022-08-19T15:31:00.325Z,29.36
2022-08-19T15:33:26.887Z,28.81
2022-08-19T15:35:53.471Z,28.14
2022-08-19T15:38:20.541Z,27.80
2022-08-19T15:40:47.143Z,27.67
2022-08-19T15:43:13.694Z,27.77
2022-08-19T15:45:40.286Z,27.68
2022-08-19T15:48:08.467Z,27.85
2022-08-19T15:50:35.054Z,27.61
2022-08-19T15:53:04.364Z,27.73
2022-08-19T15:55:34.575Z,27.71
2022-08-19T15:58:03.286Z,27.43
2022-08-19T16:00:29.802Z,27.34
2022-08-19T16:02:56.356Z,27.15
2022-08-19T16:05:26.690Z,27.32
2022-08-19T16:07:53.457Z,27.87
2022-08-19T16:10:26.909Z,27.87
2022-08-19T16:12:54.755Z,28.31
2022-08-19T16:15:21.614Z,28.35
2022-08-19T16:17:55.426Z,28.43
2022-08-19T16:20:25.931Z,27.78
2022-08-19T16:22:54.098Z,27.60
2022-08-19T16:25:20.706Z,27.46
2022-08-19T16:28:06.314Z,27.68
2022-08-19T16:30:33.770Z,27.72
2022-08-19T16:33:00.326Z,27.53
2022-08-19T16:35:28.227Z,27.47
2022-08-19T16:37:54.902Z,27.43
2022-08-19T16:40:21.714Z,27.10
2022-08-19T16:42:48.338Z,26.96
2022-08-19T16:45:15.181Z,26.66
2022-08-19T16:47:41.771Z,26.58
2022-08-19T16:50:08.936Z,26.61
2022-08-19T16:52:36.862Z,26.52
2022-08-19T16:55:04.590Z,26.28
2022-08-19T16:57:31.198Z,26.38
2022-08-19T16:59:57.902Z,26.45
2022-08-19T17:02:29.476Z,26.18
2022-08-19T17:04:58.158Z,26.27
2022-08-19T17:07:26.106Z,26.23
2022-08-19T17:09:54.052Z,26.12
2022-08-19T17:12:21.884Z,25.80
2022-08-19T17:14:48.414Z,25.55
2022-08-19T17:17:14.993Z,25.54
2022-08-19T17:19:43.543Z,25.36
2022-08-19T17:22:11.501Z,25.37
2022-08-19T17:24:38.359Z,25.23
2022-08-19T17:27:08.648Z,25.21
2022-08-19T17:29:35.638Z,25.21
2022-08-19T17:32:02.556Z,25.09
2022-08-19T17:34:29.100Z,25.00
2022-08-19T17:36:55.652Z,24.87
2022-08-19T17:39:22.230Z,24.78
2022-08-19T17:41:48.781Z,24.80
2022-08-19T17:44:16.682Z,24.71
2022-08-19T17:46:43.197Z,24.64
2022-08-19T17:49:09.721Z,24.53
2022-08-19T17:51:43.734Z,24.44
2022-08-19T17:54:12.755Z,24.28
2022-08-19T17:56:39.379Z,24.17
2022-08-19T17:59:06.359Z,24.05
2022-08-19T18:01:52.373Z,24.06
2022-08-19T18:04:21.132Z,23.88
2022-08-19T18:06:53.004Z,23.77
2022-08-19T18:09:23.770Z,23.74
2022-08-19T18:11:52.659Z,23.68
2022-08-19T18:14:20.103Z,23.65
2022-08-19T18:16:48.004Z,23.57
2022-08-19T18:19:14.539Z,23.45
2022-08-19T18:21:41.087Z,23.32
2022-08-19T18:24:07.790Z,23.19
2022-08-19T18:26:34.360Z,23.03
2022-08-19T18:29:00.917Z,22.95
2022-08-19T18:31:27.461Z,22.84
2022-08-19T18:33:55.437Z,22.74
2022-08-19T18:36:50.137Z,22.62
2022-08-19T18:39:08.621Z,22.50
2022-08-19T18:41:35.354Z,22.36
2022-08-19T18:44:02.120Z,22.23
2022-08-19T18:46:29.062Z,22.09
2022-08-19T18:49:03.093Z,22.05
2022-08-19T18:51:29.636Z,21.92
2022-08-19T18:53:56.258Z,21.76
2022-08-19T18:56:22.792Z,21.61
2022-08-19T18:58:49.367Z,21.54
2022-08-19T19:01:18.956Z,21.45
2022-08-19T19:03:47.502Z,21.40
2022-08-19T19:06:18.266Z,21.26
2022-08-19T19:08:44.834Z,21.14
2022-08-19T19:11:11.425Z,20.98
2022-08-19T19:13:39.479Z,20.85
2022-08-19T19:16:06.651Z,20.73
2022-08-19T19:18:33.255Z,20.60
2022-08-19T19:20:59.876Z,20.54
2022-08-19T19:23:27.791Z,20.49
2022-08-19T19:25:54.897Z,20.42
2022-08-19T19:28:23.531Z,20.30
2022-08-19T19:30:50.060Z,20.23
2022-08-19T19:33:16.600Z,20.13
2022-08-19T19:35:43.544Z,20.05
2022-08-19T19:38:12.370Z,19.96
2022-08-19T19:40:40.297Z,19.90
2022-08-19T19:43:06.852Z,19.80
2022-08-19T19:45:33.444Z,19.70
2022-08-19T19:48:00.024Z,19.63
2022-08-19T19:50:27.124Z,19.54
2022-08-19T19:52:53.670Z,19.46
2022-08-19T19:55:20.294Z,19.41
2022-08-19T19:57:48.730Z,19.32
2022-08-19T20:00:17.437Z,19.27
2022-08-19T20:02:47.889Z,19.23
2022-08-19T20:05:17.344Z,19.15
2022-08-19T20:07:43.899Z,19.05
2022-08-19T20:10:10.513Z,18.97
2022-08-19T20:12:37.119Z,18.91
2022-08-19T20:15:05.538Z,18.84
2022-08-19T20:17:32.127Z,18.79
2022-08-19T20:19:58.683Z,18.69
2022-08-19T20:22:25.511Z,18.68
2022-08-19T20:24:52.077Z,18.63
2022-08-19T20:27:18.790Z,18.59
2022-08-19T20:29:47.543Z,18.59
2022-08-19T20:32:16.383Z,18.52
2022-08-19T20:34:42.948Z,18.49
2022-08-19T20:37:09.781Z,18.47
2022-08-19T20:39:36.614Z,18.40
2022-08-19T20:42:03.453Z,18.34
2022-08-19T20:44:29.987Z,18.27
2022-08-19T20:47:00.567Z,18.25
2022-08-19T20:49:31.618Z,18.20
2022-08-19T20:51:58.191Z,18.17
2022-08-19T20:54:24.851Z,18.11
2022-08-19T20:56:51.431Z,18.08
2022-08-19T20:59:18.054Z,18.01
2022-08-19T21:01:44.630Z,17.97
2022-08-19T21:04:11.206Z,17.91
2022-08-19T21:06:39.074Z,17.85
2022-08-19T21:09:08.832Z,17.78
2022-08-19T21:11:35.851Z,17.74
2022-08-19T21:14:02.475Z,17.75
2022-08-19T21:16:29.051Z,17.68
2022-08-19T21:18:55.582Z,17.62
2022-08-19T21:21:22.127Z,17.59
2022-08-19T21:23:49.992Z,17.54
2022-08-19T21:26:16.832Z,17.56
2022-08-19T21:28:43.463Z,17.56
2022-08-19T21:31:10.263Z,17.53
2022-08-19T21:33:38.202Z,17.51
2022-08-19T21:36:05.415Z,17.49
2022-08-19T21:38:31.977Z,17.46
2022-08-19T21:41:04.203Z,17.45
2022-08-19T21:43:33.684Z,17.41
2022-08-19T21:46:00.228Z,17.34
2022-08-19T21:48:27.451Z,17.31
2022-08-19T21:50:53.999Z,17.26
2022-08-19T21:53:22.749Z,17.26
2022-08-19T21:55:53.543Z,17.19
2022-08-19T21:58:28.200Z,17.11
2022-08-19T22:00:57.418Z,17.09
2022-08-19T22:03:24.022Z,17.03
2022-08-19T22:05:50.765Z,17.01
2022-08-19T22:08:17.329Z,16.95
2022-08-19T22:10:45.095Z,16.92
2022-08-19T22:13:13.397Z,16.90
2022-08-19T22:15:41.522Z,16.85
2022-08-19T22:18:08.062Z,16.81
2022-08-19T22:20:34.692Z,16.75
2022-08-19T22:23:04.555Z,16.72
2022-08-19T22:25:34.846Z,16.67
2022-08-19T22:28:02.744Z,16.62
2022-08-19T22:30:33.639Z,16.54
2022-08-19T22:33:04.473Z,16.51
2022-08-19T22:35:33.582Z,16.49
2022-08-19T22:38:01.232Z,16.43
2022-08-19T22:40:29.875Z,16.42
2022-08-19T22:42:58.074Z,16.40
2022-08-19T22:45:24.757Z,16.35
2022-08-19T22:47:51.464Z,16.32
2022-08-19T22:50:19.607Z,16.33
2022-08-19T22:52:51.787Z,16.28
2022-08-19T22:55:19.143Z,16.21
2022-08-19T22:57:45.721Z,16.17
2022-08-19T23:00:13.261Z,16.15
2022-08-19T23:02:51.591Z,16.15
2022-08-19T23:05:22.397Z,16.10
2022-08-19T23:07:52.359Z,16.09
2022-08-19T23:10:26.904Z,16.04
2022-08-19T23:12:56.618Z,15.99
2022-08-19T23:15:25.507Z,15.93
2022-08-19T23:17:53.029Z,15.90
2022-08-19T23:20:22.651Z,15.85
2022-08-19T23:22:49.190Z,15.80
2022-08-19T23:25:17.873Z,15.77
2022-08-19T23:27:44.689Z,15.71
2022-08-19T23:30:11.651Z,15.67
2022-08-19T23:32:38.227Z,15.61
2022-08-19T23:35:05.481Z,15.60
2022-08-19T23:37:33.454Z,15.56
2022-08-19T23:40:00.044Z,15.50
2022-08-19T23:42:26.687Z,15.44
2022-08-19T23:44:53.211Z,15.42
2022-08-19T23:47:20.465Z,15.38
2022-08-19T23:49:46.998Z,15.31
2022-08-19T23:52:13.521Z,15.24
2022-08-19T23:54:43.681Z,15.21
2022-08-19T23:57:14.209Z,15.18
2022-08-19T23:59:42.135Z,15.15
